createdAt,value
2023-02-12T00:03:48.598Z,101.54476
2023-02-12T00:08:50.105Z,102.35476
2023-02-12T00:13:51.659Z,101.14286
2023-02-12T00:18:53.350Z,101.94872
2023-02-12T00:23:54.832Z,103.58549
2023-02-12T00:28:56.418Z,102.76289
2023-02-12T00:33:58.003Z,100.34518
2023-02-12T00:38:59.640Z,99.16373
2023-02-12T00:44:01.093Z,98.38596
2023-02-12T00:49:03.109Z,98.38596
2023-02-12T00:54:04.584Z,98
2023-02-12T00:59:06.033Z,98
2023-02-12T01:04:07.701Z,96.09877
2023-02-12T01:09:09.151Z,95.35135
2023-02-12T01:14:10.587Z,94.98039
2023-02-12T01:19:12.999Z,94.61125
2023-02-12T01:24:14.502Z,94.61125
2023-02-12T01:29:15.978Z,95.35135
2023-02-12T01:34:17.428Z,95.35135
2023-02-12T01:39:18.943Z,94.98039
2023-02-12T01:44:20.432Z,92.07692
2023-02-12T01:49:22.282Z,88.94118
2023-02-12T01:54:23.874Z,88.94118
2023-02-12T01:59:25.392Z,88.60094
2023-02-12T02:04:27.005Z,87.25581
2023-02-12T02:09:28.845Z,86.26328
2023-02-12T02:14:30.293Z,87.58974
2023-02-12T02:19:32.078Z,86.59259
2023-02-12T02:24:33.499Z,86.92343
2023-02-12T02:29:35.365Z,87.25581
2023-02-12T02:34:37.198Z,87.58974
2023-02-12T02:39:39.097Z,88.2623
2023-02-12T02:44:40.811Z,87.92523
2023-02-12T02:49:42.797Z,88.60094
2023-02-12T02:54:44.507Z,89.97156
2023-02-12T02:59:46.185Z,89.28302
2023-02-12T03:04:47.884Z,88.94118
2023-02-12T03:09:49.516Z,88.2623
2023-02-12T03:14:51.019Z,88.60094
2023-02-12T03:19:53.144Z,90.31829
2023-02-12T03:24:54.756Z,91.01671
2023-02-12T03:29:56.264Z,92.07692
2023-02-12T03:34:57.946Z,92.07692
2023-02-12T03:39:59.523Z,91.72182
2023-02-12T03:45:01.013Z,91.36842
2023-02-12T03:50:02.787Z,91.36842
2023-02-12T03:55:04.523Z,91.36842
2023-02-12T04:00:06.394Z,92.07692
2023-02-12T04:05:08.158Z,92.07692
2023-02-12T04:10:09.925Z,92.07692
2023-02-12T04:15:11.518Z,92.43373
2023-02-12T04:20:13.339Z,92.79227
2023-02-12T04:25:14.875Z,92.43373
2023-02-12T04:30:16.298Z,92.79227
2023-02-12T04:35:17.951Z,92.07692
2023-02-12T04:40:19.434Z,92.79227
2023-02-12T04:45:21.156Z,93.15254
2023-02-12T04:50:23.259Z,93.15254
2023-02-12T04:55:25.034Z,92.07692
2023-02-12T05:00:26.885Z,90.66667
2023-02-12T05:05:28.789Z,90.66667
2023-02-12T05:10:30.659Z,93.15254
2023-02-12T05:15:32.647Z,93.51456
2023-02-12T05:20:34.787Z,97.23383
2023-02-12T05:25:36.699Z,96.09877
2023-02-12T05:30:38.559Z,96.8536
2023-02-12T05:35:40.512Z,96.47525
2023-02-12T05:40:42.080Z,99.16373
2023-02-12T05:45:43.508Z,96.8536
2023-02-12T05:50:45.276Z,98
2023-02-12T05:55:46.740Z,100.34518
2023-02-12T06:00:48.476Z,98.77387
2023-02-12T06:05:49.903Z,104
2023-02-12T06:10:51.609Z,108.70588
2023-02-12T06:15:53.532Z,111.3913
2023-02-12T06:20:55.345Z,106.10526
2023-02-12T06:25:57.220Z,110.03774
2023-02-12T06:30:59.411Z,106.96296
2023-02-12T06:36:01.405Z,113.69697
2023-02-12T06:41:03.172Z,111.3913
2023-02-12T06:46:04.746Z,114.63712
2023-02-12T06:51:06.886Z,111.84741
2023-02-12T06:56:08.776Z,113.69697
2023-02-12T07:01:10.508Z,119
2023-02-12T07:06:12.504Z,118.50425
2023-02-12T07:11:14.340Z,126.24852
2023-02-12T07:16:16.304Z,127.33333
2023-02-12T07:21:18.391Z,135.90031
2023-02-12T07:26:20.228Z,129.54217
2023-02-12T07:31:22.214Z,118.50425
2023-02-12T07:36:24.254Z,125.71091
2023-02-12T07:41:26.077Z,138.32177
2023-02-12T07:46:27.915Z,127.8806
2023-02-12T07:51:29.979Z,136.5
2023-02-12T07:56:31.883Z,132.95706
2023-02-12T08:01:33.732Z,137.71069
2023-02-12T08:06:35.750Z,135.90031
2023-02-12T08:11:37.631Z,149.33333
2023-02-12T08:16:39.564Z,160.90141
2023-02-12T08:21:41.795Z,152.81356
2023-02-12T08:26:43.556Z,147.97351
2023-02-12T08:31:45.104Z,167.18841
2023-02-12T08:36:46.684Z,179.1145
2023-02-12T08:41:48.501Z,203.91561
2023-02-12T08:46:50.133Z,184.625
2023-02-12T08:51:52.136Z,195.42857
2023-02-12T08:56:53.896Z,199.60166
2023-02-12T09:01:56.037Z,202.82353
2023-02-12T09:06:58.053Z,212.99563
2023-02-12T09:11:59.964Z,238.73684
2023-02-12T09:17:01.863Z,255.11111
2023-02-12T09:22:03.776Z,243.02913
2023-02-12T09:27:05.595Z,258.28571
2023-02-12T09:32:07.433Z,268.21053
2023-02-12T09:37:09.015Z,306.35294
2023-02-12T09:42:10.449Z,282.46154
2023-02-12T09:47:12.119Z,317.33333
2023-02-12T09:52:13.955Z,306.35294
2023-02-12T09:57:15.860Z,273.41176
2023-02-12T10:02:17.738Z,253.54774
2023-02-12T10:07:19.467Z,268.21053
2023-02-12T10:12:21.215Z,230.51163
2023-02-12T10:17:22.985Z,209.51724
2023-02-12T10:22:24.957Z,229.18519
2023-02-12T10:27:26.605Z,231.85047
2023-02-12T10:32:28.364Z,219
2023-02-12T10:37:30.491Z,200.66667
2023-02-12T10:42:32.278Z,184.625
2023-02-12T10:47:34.130Z,164.78853
2023-02-12T10:52:36.559Z,161.66784
2023-02-12T10:57:38.543Z,161.66784
2023-02-12T11:02:40.362Z,137.71069
2023-02-12T11:07:42.319Z,152.81356
2023-02-12T11:12:43.849Z,157.14879
2023-02-12T11:17:45.388Z,157.14879
2023-02-12T11:22:47.235Z,181.83784
2023-02-12T11:27:48.844Z,175.57895
2023-02-12T11:32:50.295Z,168
2023-02-12T11:37:51.893Z,166.38267
2023-02-12T11:42:53.442Z,176.45283
2023-02-12T11:47:54.885Z,167.18841
2023-02-12T11:52:56.784Z,195.42857
2023-02-12T11:57:58.515Z,194.4065
2023-02-12T12:03:00.007Z,189.41833
2023-02-12T12:08:01.551Z,208.37768
2023-02-12T12:13:03.031Z,199.60166
2023-02-12T12:18:04.506Z,226.56881
2023-02-12T12:23:06.325Z,217.77778
2023-02-12T12:28:07.957Z,224
2023-02-12T12:33:09.459Z,224
2023-02-12T12:38:11.077Z,226.56881
2023-02-12T12:43:12.723Z,208.37768
2023-02-12T12:48:14.170Z,237.33333
2023-02-12T12:53:15.791Z,240.15385
2023-02-12T12:58:17.573Z,258.28571
2023-02-12T13:03:19.317Z,255.11111
2023-02-12T13:08:21.090Z,253.54774
2023-02-12T13:13:22.571Z,259.89744
2023-02-12T13:18:24.068Z,220.23318
2023-02-12T13:23:25.797Z,211.82609
2023-02-12T13:28:27.402Z,235.94313
2023-02-12T13:33:29.329Z,264.83333
2023-02-12T13:38:30.918Z,248.9505
2023-02-12T13:43:32.426Z,261.52577
2023-02-12T13:48:34.378Z,294
2023-02-12T13:53:36.168Z,315.08434
2023-02-12T13:58:37.937Z,302.13953
2023-02-12T14:03:39.497Z,271.65957
2023-02-12T14:08:41.274Z,230.51163
2023-02-12T14:13:43.021Z,233.20188
2023-02-12T14:18:44.592Z,237.33333
2023-02-12T14:23:46.581Z,248.9505
2023-02-12T14:28:48.114Z,221.47748
2023-02-12T14:33:49.553Z,172.14815
2023-02-12T14:38:51.128Z,153.52381
2023-02-12T14:43:52.779Z,244.4878
2023-02-12T14:48:54.562Z,280.61202
2023-02-12T14:53:56.447Z,321.91411
2023-02-12T14:58:58.204Z,230.51163
2023-02-12T15:03:59.678Z,317.33333
2023-02-12T15:09:01.165Z,396.94118
2023-02-12T15:14:02.642Z,371.77778
2023-02-12T15:19:04.469Z,298.02299
2023-02-12T15:24:06.118Z,371.77778
2023-02-12T15:29:07.690Z,292.0226
2023-02-12T15:34:09.166Z,240.15385
2023-02-12T15:39:10.844Z,261.52577
2023-02-12T15:44:12.559Z,282.46154
2023-02-12T15:49:14.306Z,229.18519
2023-02-12T15:54:15.957Z,222.73303
2023-02-12T15:59:17.691Z,207.24786
2023-02-12T16:04:19.377Z,199.60166
2023-02-12T16:09:21.085Z,196.45902
2023-02-12T16:14:22.725Z,180.01533
2023-02-12T16:19:24.506Z,183.68872
2023-02-12T16:24:26.476Z,168.81752
2023-02-12T16:29:28.107Z,152.81356
2023-02-12T16:34:29.727Z,171.30627
2023-02-12T16:39:31.327Z,161.66784
2023-02-12T16:44:32.902Z,168.81752
2023-02-12T16:49:34.543Z,180.01533
2023-02-12T16:54:36.443Z,171.30627
2023-02-12T16:59:38.167Z,168
2023-02-12T17:04:39.978Z,169.64103
2023-02-12T17:09:41.797Z,172.99628
2023-02-12T17:14:43.541Z,169.64103
2023-02-12T17:19:45.238Z,164
2023-02-12T17:24:47.085Z,163.21708
2023-02-12T17:29:48.613Z,161.66784
2023-02-12T17:34:50.241Z,172.14815
2023-02-12T17:39:52.016Z,178.22053
2023-02-12T17:44:53.655Z,188.44444
2023-02-12T17:49:55.140Z,183.68872
2023-02-12T17:54:56.775Z,190.4
2023-02-12T17:59:58.318Z,182.75969
2023-02-12T18:05:00.122Z,180.01533
2023-02-12T18:10:02.089Z,172.14815
2023-02-12T18:15:03.730Z,168
2023-02-12T18:20:05.492Z,156.41379
2023-02-12T18:25:07.449Z,153.52381
2023-02-12T18:30:09.201Z,157.88889
2023-02-12T18:35:10.941Z,152.10811
2023-02-12T18:40:12.697Z,152.10811
2023-02-12T18:45:14.488Z,138.32177
2023-02-12T18:50:16.086Z,132.3792
2023-02-12T18:55:18.084Z,132.95706
2023-02-12T19:00:19.925Z,128.98498
2023-02-12T19:05:21.661Z,128.98498
2023-02-12T19:10:23.512Z,124.11696
2023-02-12T19:15:25.600Z,130.66667
2023-02-12T19:20:27.473Z,135.90031
2023-02-12T19:25:29.479Z,127.33333
2023-02-12T19:30:31.235Z,122.03468
2023-02-12T19:35:33.024Z,116.54902
2023-02-12T19:40:34.853Z,112.30601
2023-02-12T19:45:36.622Z,111.3913
2023-02-12T19:50:38.422Z,116.54902
2023-02-12T19:55:40.406Z,115.11111
2023-02-12T20:00:42.234Z,114.16575
2023-02-12T20:05:43.992Z,112.76712
2023-02-12T20:10:45.745Z,107.82979
2023-02-12T20:15:47.263Z,108.26667
2023-02-12T20:20:48.921Z,111.84741
2023-02-12T20:25:50.753Z,112.76712
2023-02-12T20:30:52.420Z,115.58774
2023-02-12T20:35:54.213Z,119
2023-02-12T20:40:56.255Z,116.06704
2023-02-12T20:51:00.308Z,121.52161
2023-02-12T20:56:02.277Z,117.03371
2023-02-12T21:01:03.941Z,116.54902
2023-02-12T21:06:05.702Z,117.52113
2023-02-12T21:11:07.677Z,118.50425
2023-02-12T21:16:09.524Z,119
2023-02-12T21:21:11.303Z,119
2023-02-12T21:26:13.255Z,118.50425
2023-02-12T21:31:15.098Z,115.11111
2023-02-12T21:36:16.941Z,113.23077
2023-02-12T21:41:18.603Z,112.30601
2023-02-12T21:46:20.559Z,110.03774
2023-02-12T21:51:22.384Z,109.14745
2023-02-12T21:56:24.411Z,109.14745
2023-02-12T22:01:26.137Z,111.3913
2023-02-12T22:06:27.903Z,110.03774
2023-02-12T22:11:29.666Z,109.14745
2023-02-12T22:16:31.477Z,108.26667
2023-02-12T22:21:33.299Z,108.26667
2023-02-12T22:26:35.433Z,109.14745
2023-02-12T22:31:37.332Z,107.39523
2023-02-12T22:36:39.217Z,102.35476
2023-02-12T22:41:41.559Z,98.77387
2023-02-12T22:46:43.448Z,95.72414
2023-02-12T22:51:44.904Z,94.61125
2023-02-12T22:56:46.917Z,94.2439
2023-02-12T23:01:48.345Z,93.51456
2023-02-12T23:06:49.825Z,93.51456
2023-02-12T23:11:51.323Z,93.87835
2023-02-12T23:16:52.901Z,97.61596
2023-02-12T23:21:54.552Z,98.77387
2023-02-12T23:26:56.520Z,101.54476
2023-02-12T23:31:58.007Z,104.83551
2023-02-12T23:36:59.842Z,108.26667
2023-02-12T23:42:01.546Z,108.26667
2023-02-12T23:47:03.393Z,112.76712
2023-02-12T23:52:04.871Z,115.58774
2023-02-12T23:57:06.645Z,115.58774
